createdAt,value
2023-04-30T00:01:07.829Z,95021.97
2023-04-30T00:03:35.916Z,95018.75
2023-04-30T00:06:03.983Z,95029.31
2023-04-30T00:08:31.982Z,95027.00
2023-04-30T00:10:59.743Z,95037.78
2023-04-30T00:13:33.889Z,95036.13
2023-04-30T00:16:07.741Z,95039.09
2023-04-30T00:18:36.815Z,95046.34
2023-04-30T00:21:04.854Z,95038.25
2023-04-30T00:23:32.722Z,95046.34
2023-04-30T00:26:00.544Z,95045.25
2023-04-30T00:28:28.567Z,95034.81
2023-04-30T00:30:58.247Z,95026.75
2023-04-30T00:33:26.147Z,95038.94
2023-04-30T00:35:53.860Z,95036.94
2023-04-30T00:38:23.270Z,95036.44
2023-04-30T00:40:51.120Z,95035.53
2023-04-30T00:43:18.970Z,95040.16
2023-04-30T00:45:46.743Z,95042.28
2023-04-30T00:48:16.227Z,95053.94
2023-04-30T00:50:45.417Z,95052.13
2023-04-30T00:53:13.353Z,95057.09
2023-04-30T00:55:42.109Z,95052.03
2023-04-30T00:58:09.843Z,95048.81
2023-04-30T01:00:37.539Z,95052.59
2023-04-30T01:03:05.314Z,95063.81
2023-04-30T01:05:34.469Z,95057.91
2023-04-30T01:08:02.050Z,95062.28
2023-04-30T01:10:31.788Z,95065.81
2023-04-30T01:13:04.535Z,95062.63
2023-04-30T01:15:39.006Z,95067.47
2023-04-30T01:18:10.086Z,95069.25
2023-04-30T01:20:40.700Z,95062.19
2023-04-30T01:23:19.372Z,95067.78
2023-04-30T01:25:55.956Z,95071.00
2023-04-30T01:28:25.851Z,95064.72
2023-04-30T01:30:54.544Z,95064.16
2023-04-30T01:33:22.264Z,95067.47
2023-04-30T01:36:11.567Z,95065.69
2023-04-30T01:38:49.943Z,95067.19
2023-04-30T01:41:24.003Z,95064.78
2023-04-30T01:44:02.048Z,95065.97
2023-04-30T01:46:30.995Z,95056.75
2023-04-30T01:49:15.492Z,95054.84
2023-04-30T01:51:45.766Z,95050.94
2023-04-30T01:54:28.163Z,95042.31
2023-04-30T01:56:58.693Z,95044.53
2023-04-30T01:59:27.866Z,95040.16
2023-04-30T02:01:57.478Z,95042.88
2023-04-30T02:04:25.232Z,95053.19
2023-04-30T02:06:53.155Z,95066.13
2023-04-30T02:09:20.846Z,95071.38
2023-04-30T02:11:48.472Z,95081.66
2023-04-30T02:14:16.136Z,95085.13
2023-04-30T02:16:45.187Z,95084.06
2023-04-30T02:19:12.894Z,95074.88
2023-04-30T02:21:40.707Z,95078.31
2023-04-30T02:24:08.515Z,95080.91
2023-04-30T02:26:36.155Z,95080.09
2023-04-30T02:29:03.855Z,95075.34
2023-04-30T02:31:31.555Z,95085.50
2023-04-30T02:34:00.652Z,95087.63
2023-04-30T02:36:28.361Z,95082.06
2023-04-30T02:38:56.064Z,95082.91
2023-04-30T02:41:23.820Z,95079.47
2023-04-30T02:43:51.657Z,95074.97
2023-04-30T02:46:19.595Z,95071.31
2023-04-30T02:48:47.349Z,95061.84
2023-04-30T02:51:16.338Z,95059.47
2023-04-30T02:53:43.980Z,95065.25
2023-04-30T02:56:11.632Z,95063.94
2023-04-30T02:58:39.270Z,95069.97
2023-04-30T03:01:07.054Z,95073.16
2023-04-30T03:03:34.806Z,95072.59
2023-04-30T03:06:02.958Z,95066.09
2023-04-30T03:08:32.108Z,95069.19
2023-04-30T03:10:59.974Z,95072.94
2023-04-30T03:13:27.633Z,95064.22
2023-04-30T03:15:59.805Z,95060.44
2023-04-30T03:18:27.924Z,95063.16
2023-04-30T03:20:55.722Z,95056.28
2023-04-30T03:23:23.375Z,95063.63
2023-04-30T03:25:52.408Z,95066.34
2023-04-30T03:28:20.696Z,95057.59
2023-04-30T03:30:48.624Z,95056.41
2023-04-30T03:33:17.217Z,95059.50
2023-04-30T03:35:44.943Z,95053.50
2023-04-30T03:38:12.660Z,95051.72
2023-04-30T03:40:40.334Z,95043.56
2023-04-30T03:43:09.513Z,95045.47
2023-04-30T03:45:37.349Z,95049.22
2023-04-30T03:48:05.413Z,95045.47
2023-04-30T03:50:33.151Z,95057.97
2023-04-30T03:53:01.058Z,95057.16
2023-04-30T03:55:28.940Z,95058.47
2023-04-30T03:57:56.727Z,95056.81
2023-04-30T04:00:26.648Z,95055.88
2023-04-30T04:02:54.410Z,95057.28
2023-04-30T04:05:22.266Z,95060.81
2023-04-30T04:07:50.044Z,95059.75
2023-04-30T04:10:17.828Z,95069.34
2023-04-30T04:12:45.550Z,95061.66
2023-04-30T04:15:13.453Z,95055.88
2023-04-30T04:17:42.558Z,95059.66
2023-04-30T04:20:13.778Z,95063.19
2023-04-30T04:22:41.824Z,95070.28
2023-04-30T04:25:10.499Z,95065.06
2023-04-30T04:27:38.220Z,95073.00
2023-04-30T04:30:06.911Z,95071.94
2023-04-30T04:32:46.626Z,95077.38
2023-04-30T04:35:16.089Z,95076.53
2023-04-30T04:37:43.912Z,95073.81
2023-04-30T04:40:12.469Z,95081.16
2023-04-30T04:42:40.199Z,95082.44
2023-04-30T04:45:10.005Z,95087.88
2023-04-30T04:47:38.181Z,95084.81
2023-04-30T04:50:06.807Z,95088.38
2023-04-30T04:52:36.029Z,95089.19
2023-04-30T04:55:04.640Z,95089.53
2023-04-30T04:57:32.561Z,95078.66
2023-04-30T05:00:00.228Z,95087.63
2023-04-30T05:02:27.972Z,95083.53
2023-04-30T05:04:56.027Z,95086.22
2023-04-30T05:07:23.680Z,95089.78
2023-04-30T05:09:52.982Z,95092.03
2023-04-30T05:12:21.030Z,95090.59
2023-04-30T05:14:49.480Z,95101.00
2023-04-30T05:17:17.115Z,95092.84
2023-04-30T05:19:45.304Z,95101.56
2023-04-30T05:22:12.956Z,95097.22
2023-04-30T05:24:40.737Z,95095.78
2023-04-30T05:27:09.941Z,95096.03
2023-04-30T05:29:37.579Z,95099.81
2023-04-30T05:32:05.818Z,95090.97
2023-04-30T05:34:33.438Z,95086.00
2023-04-30T05:37:01.607Z,95088.94
2023-04-30T05:39:29.211Z,95086.94
2023-04-30T05:41:56.840Z,95091.44
2023-04-30T05:44:25.802Z,95084.81
2023-04-30T05:46:53.447Z,95089.41
2023-04-30T05:49:21.070Z,95082.44
2023-04-30T05:51:48.893Z,95093.66
2023-04-30T05:54:16.524Z,95096.75
2023-04-30T05:56:44.208Z,95102.06
2023-04-30T05:59:11.879Z,95098.16
2023-04-30T06:01:41.648Z,95101.94
2023-04-30T06:04:09.322Z,95091.88
2023-04-30T06:06:37.081Z,95095.16
2023-04-30T06:09:04.910Z,95088.97
2023-04-30T06:11:32.610Z,95095.94
2023-04-30T06:14:00.354Z,95085.50
2023-04-30T06:16:28.074Z,95096.09
2023-04-30T06:18:57.134Z,95093.41
2023-04-30T06:21:26.003Z,95102.72
2023-04-30T06:23:53.820Z,95096.16
2023-04-30T06:26:21.558Z,95090.31
2023-04-30T06:28:49.227Z,95091.19
2023-04-30T06:31:16.932Z,95087.03
2023-04-30T06:33:44.620Z,95093.66
2023-04-30T06:36:13.695Z,95097.13
2023-04-30T06:38:41.580Z,95090.69
2023-04-30T06:41:09.209Z,95092.84
2023-04-30T06:43:36.941Z,95096.63
2023-04-30T06:46:05.176Z,95093.03
2023-04-30T06:48:32.922Z,95096.59
2023-04-30T06:51:00.868Z,95099.72
2023-04-30T06:53:30.144Z,95101.41
2023-04-30T06:55:57.793Z,95087.94
2023-04-30T06:58:25.689Z,95102.44
2023-04-30T07:00:54.088Z,95096.44
2023-04-30T07:03:21.850Z,95097.31
2023-04-30T07:05:49.536Z,95098.47
2023-04-30T07:08:17.563Z,95097.00
2023-04-30T07:10:46.541Z,95096.03
2023-04-30T07:13:14.233Z,95095.09
2023-04-30T07:15:42.205Z,95099.31
2023-04-30T07:18:10.228Z,95100.47
2023-04-30T07:20:38.110Z,95096.59
2023-04-30T07:23:05.747Z,95093.59
2023-04-30T07:25:33.542Z,95096.94
2023-04-30T07:28:02.577Z,95093.97
2023-04-30T07:30:30.287Z,95087.28
2023-04-30T07:32:57.980Z,95083.34
2023-04-30T07:35:25.615Z,95087.63
2023-04-30T07:37:53.307Z,95091.00
2023-04-30T07:40:32.665Z,95081.75
2023-04-30T07:43:04.626Z,95079.06
2023-04-30T07:45:33.929Z,95072.81
2023-04-30T07:48:02.071Z,95078.97
2023-04-30T07:50:33.731Z,95081.53
2023-04-30T07:53:02.381Z,95079.22
2023-04-30T07:55:30.372Z,95078.16
2023-04-30T07:57:58.779Z,95080.38
2023-04-30T08:00:29.395Z,95078.63
2023-04-30T08:02:57.170Z,95083.59
2023-04-30T08:05:24.863Z,95075.97
2023-04-30T08:07:52.483Z,95075.06
2023-04-30T08:10:20.205Z,95074.03
2023-04-30T08:12:47.871Z,95071.06
2023-04-30T08:15:15.566Z,95070.53
2023-04-30T08:17:45.101Z,95068.41
2023-04-30T08:20:13.230Z,95073.38
2023-04-30T08:22:40.883Z,95069.63
2023-04-30T08:25:09.154Z,95063.25
2023-04-30T08:27:36.800Z,95074.25
2023-04-30T08:30:04.766Z,95068.50
2023-04-30T08:32:32.476Z,95070.16
2023-04-30T08:35:01.574Z,95068.44
2023-04-30T08:37:29.299Z,95070.28
2023-04-30T08:39:57.160Z,95072.22
2023-04-30T08:42:27.012Z,95079.66
2023-04-30T08:44:54.679Z,95082.09
2023-04-30T08:47:22.656Z,95073.94
2023-04-30T08:49:50.381Z,95071.28
2023-04-30T08:52:20.309Z,95074.06
2023-04-30T08:54:48.805Z,95078.16
2023-04-30T08:57:16.484Z,95075.38
2023-04-30T08:59:46.239Z,95079.53
2023-04-30T09:02:14.335Z,95071.91
2023-04-30T09:04:42.532Z,95077.97
2023-04-30T09:07:12.075Z,95081.78
2023-04-30T09:09:41.315Z,95076.56
2023-04-30T09:12:16.876Z,95071.34
2023-04-30T09:14:59.589Z,95080.66
2023-04-30T09:17:27.399Z,95073.28
2023-04-30T09:19:55.527Z,95074.13
2023-04-30T09:22:25.550Z,95074.09
2023-04-30T09:24:55.117Z,95075.75
2023-04-30T09:27:23.829Z,95073.59
2023-04-30T09:29:51.646Z,95081.47
2023-04-30T09:32:19.326Z,95077.25
2023-04-30T09:34:46.986Z,95073.28
2023-04-30T09:37:15.896Z,95079.22
2023-04-30T09:39:51.093Z,95070.22
2023-04-30T09:42:20.314Z,95079.00
2023-04-30T09:44:48.671Z,95071.88
2023-04-30T09:47:17.540Z,95072.75
2023-04-30T09:49:45.501Z,95072.66
2023-04-30T09:52:13.659Z,95068.97
2023-04-30T09:54:41.503Z,95072.31
2023-04-30T09:57:11.787Z,95064.94
2023-04-30T09:59:44.383Z,95058.91
2023-04-30T10:02:15.572Z,95065.31
2023-04-30T10:04:44.700Z,95074.38
2023-04-30T10:07:16.064Z,95069.41
2023-04-30T10:09:49.348Z,95065.47
2023-04-30T10:12:17.121Z,95063.44
2023-04-30T10:14:52.544Z,95057.50
2023-04-30T10:17:22.039Z,95054.13
2023-04-30T10:19:51.141Z,95061.03
2023-04-30T10:22:19.496Z,95050.72
2023-04-30T10:24:47.161Z,95052.38
2023-04-30T10:27:15.000Z,95048.75
2023-04-30T10:29:43.331Z,95039.38
2023-04-30T10:32:13.259Z,95041.38
2023-04-30T10:34:50.297Z,95042.72
2023-04-30T10:37:23.643Z,95036.38
2023-04-30T10:39:51.989Z,95028.94
2023-04-30T10:42:19.752Z,95031.88
2023-04-30T10:44:48.745Z,95023.84
2023-04-30T10:47:19.271Z,95025.47
2023-04-30T10:49:48.275Z,95018.69
2023-04-30T10:52:16.098Z,95018.09
2023-04-30T10:54:51.995Z,95018.75
2023-04-30T10:57:20.174Z,95020.09
2023-04-30T10:59:53.636Z,95022.19
2023-04-30T11:02:23.015Z,95020.13
2023-04-30T11:05:09.681Z,95018.69
2023-04-30T11:07:37.474Z,95026.16
2023-04-30T11:10:06.266Z,95018.03
2023-04-30T11:12:33.992Z,95007.91
2023-04-30T11:15:03.834Z,95015.66
2023-04-30T11:17:33.428Z,95013.34
2023-04-30T11:20:02.082Z,95016.47
2023-04-30T11:22:35.864Z,95009.69
2023-04-30T11:25:09.426Z,95013.16
2023-04-30T11:27:38.709Z,95008.03
2023-04-30T11:30:13.159Z,95003.03
2023-04-30T11:32:44.729Z,95006.66
2023-04-30T11:35:12.881Z,95009.41
2023-04-30T11:37:44.120Z,95006.78
2023-04-30T11:40:13.975Z,95001.88
2023-04-30T11:42:46.004Z,94997.09
2023-04-30T11:45:17.528Z,94991.91
2023-04-30T11:47:48.838Z,94997.81
2023-04-30T11:50:19.470Z,94989.78
2023-04-30T11:52:51.294Z,94996.53
2023-04-30T11:55:20.195Z,94996.75
2023-04-30T11:57:50.394Z,94988.13
2023-04-30T12:00:21.331Z,94987.78
2023-04-30T12:02:52.255Z,94988.47
2023-04-30T12:05:21.540Z,94987.28
2023-04-30T12:07:50.344Z,94987.88
2023-04-30T12:10:19.210Z,94985.38
2023-04-30T12:12:48.914Z,94981.88
2023-04-30T12:15:18.830Z,94992.09
2023-04-30T12:17:47.135Z,94973.03
2023-04-30T12:20:17.070Z,94975.56
2023-04-30T12:22:45.212Z,94973.41
2023-04-30T12:25:14.913Z,94974.09
2023-04-30T12:27:43.406Z,94974.72
2023-04-30T12:30:11.674Z,94978.16
2023-04-30T12:32:41.227Z,94970.72
2023-04-30T12:35:10.159Z,94977.75
2023-04-30T12:37:43.122Z,94969.13
2023-04-30T12:40:11.618Z,94966.81
2023-04-30T12:42:39.306Z,94975.09
2023-04-30T12:45:08.221Z,94958.53
2023-04-30T12:47:40.554Z,94963.97
2023-04-30T12:50:10.968Z,94959.34
2023-04-30T12:52:40.532Z,94956.38
2023-04-30T12:55:19.082Z,94959.81
2023-04-30T12:58:09.746Z,94940.88
2023-04-30T13:00:45.519Z,94954.66
2023-04-30T13:03:13.423Z,94944.38
2023-04-30T13:05:42.137Z,94942.44
2023-04-30T13:08:11.187Z,94937.88
2023-04-30T13:10:38.974Z,94926.72
2023-04-30T13:13:06.648Z,94927.38
2023-04-30T13:15:34.426Z,94933.31
2023-04-30T13:18:02.517Z,94932.56
2023-04-30T13:20:30.252Z,94917.13
2023-04-30T13:22:57.894Z,94915.16
2023-04-30T13:25:26.934Z,94915.47
2023-04-30T13:27:54.827Z,94908.97
2023-04-30T13:30:22.508Z,94914.16
2023-04-30T13:32:50.215Z,94916.56
2023-04-30T13:35:18.077Z,94912.72
2023-04-30T13:37:45.774Z,94915.97
2023-04-30T13:40:13.790Z,94916.88
2023-04-30T13:42:43.583Z,94909.56
2023-04-30T13:45:12.081Z,94907.41
2023-04-30T13:47:39.924Z,94904.00
2023-04-30T13:50:09.157Z,94894.06
2023-04-30T13:52:36.930Z,94899.88
2023-04-30T13:55:05.709Z,94893.78
2023-04-30T13:57:33.771Z,94896.75
2023-04-30T14:00:03.231Z,94892.81
2023-04-30T14:02:31.088Z,94893.34
2023-04-30T14:05:05.750Z,94893.28
2023-04-30T14:07:35.030Z,94898.84
2023-04-30T14:10:02.773Z,94892.69
2023-04-30T14:12:30.691Z,94894.81
2023-04-30T14:14:58.657Z,94900.09
2023-04-30T14:17:28.276Z,94901.63
2023-04-30T14:19:56.211Z,94885.41
2023-04-30T14:22:24.529Z,94886.16
2023-04-30T14:24:53.176Z,94892.06
2023-04-30T14:27:21.211Z,94893.00
2023-04-30T14:29:48.841Z,94889.00
2023-04-30T14:32:16.541Z,94887.66
2023-04-30T14:34:45.815Z,94887.84
2023-04-30T14:37:13.698Z,94884.88
2023-04-30T14:39:41.303Z,94885.56
2023-04-30T14:42:09.000Z,94882.34
2023-04-30T14:44:38.797Z,94890.63
2023-04-30T14:47:06.545Z,94889.06
2023-04-30T14:49:34.300Z,94883.22
2023-04-30T14:52:03.346Z,94868.81
2023-04-30T14:54:31.121Z,94864.69
2023-04-30T14:56:58.766Z,94865.69
2023-04-30T14:59:26.422Z,94861.19
2023-04-30T15:01:54.120Z,94864.34
2023-04-30T15:04:21.868Z,94868.22
2023-04-30T15:06:49.615Z,94861.53
2023-04-30T15:09:18.803Z,94869.03
2023-04-30T15:11:46.386Z,94865.59
2023-04-30T15:14:14.139Z,94871.75
2023-04-30T15:16:42.069Z,94875.72
2023-04-30T15:19:09.755Z,94867.19
2023-04-30T15:21:37.392Z,94862.50
2023-04-30T15:24:05.662Z,94866.41
2023-04-30T15:26:34.661Z,94867.72
2023-04-30T15:29:02.303Z,94871.09
2023-04-30T15:31:30.744Z,94859.59
2023-04-30T15:33:58.557Z,94855.28
2023-04-30T15:36:26.612Z,94855.78
2023-04-30T15:38:54.255Z,94843.13
2023-04-30T15:41:22.740Z,94852.53
2023-04-30T15:43:51.817Z,94856.13
2023-04-30T15:46:19.472Z,94856.38
2023-04-30T15:48:47.325Z,94848.81
2023-04-30T15:51:14.955Z,94847.16
2023-04-30T15:53:42.671Z,94851.63
2023-04-30T15:56:10.895Z,94846.50
2023-04-30T15:58:38.589Z,94847.31
2023-04-30T16:01:07.682Z,94846.91
2023-04-30T16:03:35.484Z,94847.78
2023-04-30T16:06:03.530Z,94848.09
2023-04-30T16:08:31.231Z,94843.16
2023-04-30T16:10:58.818Z,94837.19
2023-04-30T16:13:26.447Z,94835.28
2023-04-30T16:15:54.156Z,94841.63
2023-04-30T16:18:23.141Z,94843.88
2023-04-30T16:20:51.821Z,94832.09
2023-04-30T16:23:19.525Z,94840.31
2023-04-30T16:25:47.174Z,94841.13
2023-04-30T16:28:14.808Z,94844.69
2023-04-30T16:30:42.814Z,94842.75
2023-04-30T16:33:11.236Z,94850.53
2023-04-30T16:35:40.266Z,94848.13
2023-04-30T16:38:07.858Z,94842.69
2023-04-30T16:40:35.559Z,94837.75
2023-04-30T16:43:03.235Z,94845.69
2023-04-30T16:45:30.990Z,94844.84
2023-04-30T16:47:58.787Z,94844.63
2023-04-30T16:50:27.200Z,94836.41
2023-04-30T16:52:56.207Z,94838.84
2023-04-30T16:55:23.913Z,94833.94
2023-04-30T16:57:51.637Z,94840.78
2023-04-30T17:00:19.552Z,94834.47
2023-04-30T17:02:48.967Z,94835.81
2023-04-30T17:05:17.011Z,94830.63
2023-04-30T17:07:44.797Z,94838.63
2023-04-30T17:10:14.937Z,94835.09
2023-04-30T17:12:42.826Z,94836.44
2023-04-30T17:15:11.109Z,94836.19
2023-04-30T17:17:38.850Z,94838.44
2023-04-30T17:20:07.655Z,94837.06
2023-04-30T17:22:35.596Z,94838.78
2023-04-30T17:25:04.144Z,94843.16
2023-04-30T17:27:33.204Z,94839.59
2023-04-30T17:30:00.798Z,94838.53
2023-04-30T17:32:28.714Z,94842.06
2023-04-30T17:34:56.404Z,94839.06
2023-04-30T17:37:24.132Z,94828.41
2023-04-30T17:39:51.745Z,94827.84
2023-04-30T17:42:19.585Z,94834.44
2023-04-30T17:44:48.786Z,94821.84
2023-04-30T17:47:17.076Z,94821.59
2023-04-30T17:49:44.690Z,94826.56
2023-04-30T17:52:12.369Z,94830.13
2023-04-30T17:54:40.062Z,94830.41
2023-04-30T17:57:07.754Z,94834.53
2023-04-30T17:59:35.769Z,94834.50
2023-04-30T18:02:05.841Z,94833.38
2023-04-30T18:04:33.564Z,94825.75
2023-04-30T18:07:01.242Z,94836.13
2023-04-30T18:09:30.415Z,94827.38
2023-04-30T18:11:59.498Z,94822.44
2023-04-30T18:14:28.196Z,94824.09
2023-04-30T18:16:55.964Z,94830.94
2023-04-30T18:19:25.266Z,94825.72
2023-04-30T18:21:55.920Z,94830.06
2023-04-30T18:24:27.484Z,94830.34
2023-04-30T18:26:55.472Z,94825.69
2023-04-30T18:29:23.647Z,94833.59
2023-04-30T18:31:51.446Z,94829.19
2023-04-30T18:34:19.172Z,94825.88
2023-04-30T18:36:48.265Z,94823.44
2023-04-30T18:39:15.931Z,94825.59
2023-04-30T18:41:44.746Z,94828.31
2023-04-30T18:44:13.507Z,94830.72
2023-04-30T18:46:42.612Z,94835.88
2023-04-30T18:49:10.268Z,94834.50
2023-04-30T18:51:38.161Z,94836.91
2023-04-30T18:54:07.629Z,94840.72
2023-04-30T18:56:35.683Z,94842.34
2023-04-30T18:59:03.549Z,94842.84
2023-04-30T19:01:31.935Z,94849.91
2023-04-30T19:03:59.644Z,94856.44
2023-04-30T19:06:28.285Z,94851.22
2023-04-30T19:08:56.026Z,94855.28
2023-04-30T19:11:25.405Z,94853.59
2023-04-30T19:13:53.040Z,94850.88
2023-04-30T19:16:21.397Z,94855.22
2023-04-30T19:18:49.086Z,94858.47
2023-04-30T19:21:16.942Z,94855.97
2023-04-30T19:23:44.659Z,94847.22
2023-04-30T19:26:12.323Z,94856.19
2023-04-30T19:28:41.347Z,94854.47
2023-04-30T19:31:09.116Z,94853.88
2023-04-30T19:33:39.452Z,94856.09
2023-04-30T19:36:07.117Z,94861.81
2023-04-30T19:38:34.898Z,94848.41
2023-04-30T19:41:02.598Z,94846.75
2023-04-30T19:43:30.265Z,94852.75
2023-04-30T19:45:59.832Z,94848.63
2023-04-30T19:48:27.773Z,94849.16
2023-04-30T19:50:55.796Z,94849.66
2023-04-30T19:53:25.532Z,94843.59
2023-04-30T19:55:53.573Z,94840.00
2023-04-30T19:58:24.574Z,94845.72
2023-04-30T20:00:52.374Z,94843.16
2023-04-30T20:03:23.018Z,94848.53
2023-04-30T20:05:50.709Z,94850.69
2023-04-30T20:08:18.359Z,94850.88
2023-04-30T20:10:47.851Z,94847.03
2023-04-30T20:13:15.854Z,94848.09
2023-04-30T20:15:43.631Z,94844.00
2023-04-30T20:18:12.447Z,94850.53
2023-04-30T20:20:41.520Z,94849.66
2023-04-30T20:23:14.323Z,94851.75
2023-04-30T20:25:42.927Z,94842.44
2023-04-30T20:28:10.749Z,94841.56
2023-04-30T20:30:38.570Z,94839.63
2023-04-30T20:33:06.430Z,94845.81
2023-04-30T20:35:34.067Z,94852.09
2023-04-30T20:38:04.179Z,94841.13
2023-04-30T20:40:31.909Z,94834.03
2023-04-30T20:42:59.922Z,94842.41
2023-04-30T20:45:28.137Z,94852.47
2023-04-30T20:47:55.909Z,94846.22
2023-04-30T20:50:23.704Z,94828.19
2023-04-30T20:52:51.391Z,94833.34
2023-04-30T20:55:21.050Z,94834.44
2023-04-30T20:57:50.263Z,94835.75
2023-04-30T21:00:18.095Z,94831.06
2023-04-30T21:02:45.885Z,94840.31
2023-04-30T21:05:13.821Z,94840.50
2023-04-30T21:07:41.521Z,94835.06
2023-04-30T21:10:09.755Z,94833.34
2023-04-30T21:12:38.803Z,94837.72
2023-04-30T21:15:07.430Z,94830.56
2023-04-30T21:17:35.112Z,94836.25
2023-04-30T21:20:04.078Z,94842.44
2023-04-30T21:22:31.824Z,94839.41
2023-04-30T21:24:59.512Z,94831.97
2023-04-30T21:27:27.953Z,94835.47
2023-04-30T21:29:57.199Z,94828.06
2023-04-30T21:32:25.091Z,94829.69
2023-04-30T21:34:52.717Z,94831.34
2023-04-30T21:37:20.427Z,94826.97
2023-04-30T21:39:48.025Z,94827.75
2023-04-30T21:42:15.642Z,94822.78
2023-04-30T21:44:43.446Z,94822.78
2023-04-30T21:47:12.532Z,94822.22
2023-04-30T21:49:41.059Z,94818.34
2023-04-30T21:52:09.107Z,94811.44
2023-04-30T21:54:36.730Z,94813.31
2023-04-30T21:57:04.548Z,94812.75
2023-04-30T21:59:34.811Z,94807.00
2023-04-30T22:02:07.293Z,94802.28
2023-04-30T22:04:42.377Z,94811.25
2023-04-30T22:07:10.103Z,94806.59
2023-04-30T22:09:37.760Z,94809.00
2023-04-30T22:12:06.805Z,94801.41
2023-04-30T22:14:34.447Z,94809.47
2023-04-30T22:17:02.073Z,94812.75
2023-04-30T22:19:29.761Z,94810.53
2023-04-30T22:21:58.770Z,94814.31
2023-04-30T22:24:26.403Z,94813.25
2023-04-30T22:26:54.727Z,94806.66
2023-04-30T22:29:22.401Z,94803.88
2023-04-30T22:31:50.106Z,94803.88
2023-04-30T22:34:19.350Z,94801.13
2023-04-30T22:36:47.035Z,94802.19
2023-04-30T22:39:16.034Z,94799.72
2023-04-30T22:41:46.297Z,94789.59
2023-04-30T22:44:14.528Z,94788.44
2023-04-30T22:46:42.486Z,94791.66
2023-04-30T22:49:14.512Z,94792.47
2023-04-30T22:51:48.945Z,94787.19
2023-04-30T22:54:18.710Z,94777.31
2023-04-30T22:56:46.548Z,94777.81
2023-04-30T22:59:14.249Z,94773.84
2023-04-30T23:01:42.969Z,94772.09
2023-04-30T23:04:10.683Z,94772.00
2023-04-30T23:06:38.402Z,94769.06
2023-04-30T23:09:06.065Z,94767.34
2023-04-30T23:11:35.079Z,94760.81
2023-04-30T23:14:03.609Z,94762.72
2023-04-30T23:16:31.351Z,94760.50
2023-04-30T23:18:59.029Z,94767.09
2023-04-30T23:21:26.822Z,94767.59
2023-04-30T23:23:54.469Z,94770.88
2023-04-30T23:26:23.210Z,94773.03
2023-04-30T23:28:52.417Z,94764.53
2023-04-30T23:31:20.090Z,94759.66
2023-04-30T23:33:47.751Z,94757.03
2023-04-30T23:36:15.473Z,94761.84
2023-04-30T23:38:43.172Z,94761.28
2023-04-30T23:41:10.837Z,94758.00
2023-04-30T23:43:38.407Z,94759.13
2023-04-30T23:46:08.604Z,94754.31
2023-04-30T23:48:36.332Z,94746.63
2023-04-30T23:51:05.496Z,94737.75
2023-04-30T23:53:33.302Z,94741.78
2023-04-30T23:56:01.277Z,94743.44
2023-04-30T23:58:30.871Z,94739.53
